createdAt,value
2024-05-09T00:00:48.373Z,99721.71
2024-05-09T00:03:36.940Z,99721.92
2024-05-09T00:06:05.714Z,99716.60
2024-05-09T00:08:34.845Z,99718.63
2024-05-09T00:11:03.799Z,99722.88
2024-05-09T00:13:32.306Z,99718.40
2024-05-09T00:16:00.863Z,99718.69
2024-05-09T00:18:29.600Z,99721.25
2024-05-09T00:20:58.181Z,99720.65
2024-05-09T00:23:26.436Z,99720.40
2024-05-09T00:25:55.131Z,99718.16
2024-05-09T00:28:23.367Z,99722.13
2024-05-09T00:30:52.235Z,99723.47
2024-05-09T00:33:20.863Z,99722.44
2024-05-09T00:35:49.278Z,99726.05
2024-05-09T00:38:17.470Z,99724.50
2024-05-09T00:40:46.152Z,99725.73
2024-05-09T00:43:15.667Z,99721.05
2024-05-09T00:45:44.367Z,99723.06
2024-05-09T00:48:17.506Z,99717.35
2024-05-09T00:50:49.556Z,99718.29
2024-05-09T00:53:19.213Z,99716.56
2024-05-09T00:55:48.508Z,99715.89
2024-05-09T00:58:20.292Z,99712.48
2024-05-09T01:00:50.641Z,99712.59
2024-05-09T01:03:19.984Z,99712.39
2024-05-09T01:05:48.520Z,99712.45
2024-05-09T01:08:16.837Z,99706.95
2024-05-09T01:10:47.901Z,99704.69
2024-05-09T01:13:17.089Z,99705.27
2024-05-09T01:15:48.093Z,99709.92
2024-05-09T01:18:16.793Z,99708.37
2024-05-09T01:20:45.667Z,99704.73
2024-05-09T01:23:16.011Z,99707.91
2024-05-09T01:25:46.562Z,99706.59
2024-05-09T01:28:16.446Z,99706.27
2024-05-09T01:30:45.053Z,99709.15
2024-05-09T01:33:14.657Z,99706.57
2024-05-09T01:35:43.620Z,99704.80
2024-05-09T01:38:13.635Z,99703.23
2024-05-09T01:40:43.840Z,99698.48
2024-05-09T01:43:12.559Z,99696.64
2024-05-09T01:45:41.470Z,99699.05
2024-05-09T01:48:11.086Z,99698.98
2024-05-09T01:50:42.431Z,99698.88
2024-05-09T01:53:13.840Z,99697.20
2024-05-09T01:55:43.235Z,99700.79
2024-05-09T01:58:11.804Z,99702.44
2024-05-09T02:00:42.614Z,99706.84
2024-05-09T02:03:16.315Z,99706.00
2024-05-09T02:05:49.808Z,99706.83
2024-05-09T02:08:20.014Z,99702.45
2024-05-09T02:10:50.036Z,99705.06
2024-05-09T02:13:18.839Z,99702.64
2024-05-09T02:15:47.189Z,99699.70
2024-05-09T02:18:15.607Z,99701.90
2024-05-09T02:20:44.374Z,99698.60
2024-05-09T02:23:13.892Z,99697.59
2024-05-09T02:25:42.398Z,99698.13
2024-05-09T02:28:10.544Z,99694.17
2024-05-09T02:30:41.435Z,99697.08
2024-05-09T02:33:12.861Z,99694.69
2024-05-09T02:35:44.053Z,99691.79
2024-05-09T02:38:13.686Z,99684.36
2024-05-09T02:40:42.274Z,99682.42
2024-05-09T02:43:12.914Z,99681.73
2024-05-09T02:45:42.153Z,99680.48
2024-05-09T02:48:13.064Z,99686.47
2024-05-09T02:50:44.279Z,99687.83
2024-05-09T02:53:14.269Z,99687.96
2024-05-09T02:55:43.571Z,99684.33
2024-05-09T02:58:12.212Z,99687.23
2024-05-09T03:00:42.483Z,99692.83
2024-05-09T03:03:14.384Z,99692.92
2024-05-09T03:05:46.644Z,99695.50
2024-05-09T03:08:15.435Z,99692.39
2024-05-09T03:10:43.948Z,99691.94
2024-05-09T03:13:15.447Z,99693.29
2024-05-09T03:15:45.860Z,99697.22
2024-05-09T03:18:15.472Z,99698.52
2024-05-09T03:20:44.778Z,99699.95
2024-05-09T03:23:13.424Z,99702.61
2024-05-09T03:25:42.243Z,99703.88
2024-05-09T03:28:11.486Z,99704.41
2024-05-09T03:30:42.481Z,99701.38
2024-05-09T03:33:20.145Z,99700.94
2024-05-09T03:35:49.584Z,99700.14
2024-05-09T03:38:18.499Z,99702.76
2024-05-09T03:40:49.145Z,99704.12
2024-05-09T03:43:19.074Z,99701.16
2024-05-09T03:45:50.397Z,99699.64
2024-05-09T03:48:19.236Z,99699.24
2024-05-09T03:50:47.928Z,99697.17
2024-05-09T03:53:16.529Z,99699.65
2024-05-09T03:55:49.252Z,99699.16
2024-05-09T03:58:19.158Z,99696.83
2024-05-09T04:00:47.547Z,99700.10
2024-05-09T04:03:16.842Z,99702.13
2024-05-09T04:05:45.811Z,99700.37
2024-05-09T04:08:15.420Z,99703.80
2024-05-09T04:10:45.434Z,99703.85
2024-05-09T04:13:14.009Z,99706.29
2024-05-09T04:15:42.247Z,99701.08
2024-05-09T04:18:11.047Z,99703.48
2024-05-09T04:20:41.019Z,99702.81
2024-05-09T04:23:14.814Z,99706.80
2024-05-09T04:25:45.256Z,99715.98
2024-05-09T04:28:14.732Z,99717.17
2024-05-09T04:30:43.681Z,99720.19
2024-05-09T04:33:13.822Z,99721.29
2024-05-09T04:35:44.128Z,99717.92
2024-05-09T04:38:14.279Z,99717.70
2024-05-09T04:40:43.422Z,99716.77
2024-05-09T04:43:17.366Z,99721.60
2024-05-09T04:45:46.329Z,99725.20
2024-05-09T04:48:15.039Z,99729.55
2024-05-09T04:50:44.185Z,99725.73
2024-05-09T04:53:16.534Z,99727.27
2024-05-09T04:55:45.615Z,99732.06
2024-05-09T04:58:14.050Z,99731.59
2024-05-09T05:00:44.365Z,99726.90
2024-05-09T05:03:15.469Z,99728.36
2024-05-09T05:05:47.641Z,99728.04
2024-05-09T05:08:18.059Z,99729.98
2024-05-09T05:10:48.624Z,99730.42
2024-05-09T05:13:23.063Z,99731.20
2024-05-09T05:15:55.741Z,99732.56
2024-05-09T05:18:25.990Z,99737.70
2024-05-09T05:20:56.166Z,99731.61
2024-05-09T05:23:25.255Z,99731.45
2024-05-09T05:25:55.950Z,99733.89
2024-05-09T05:28:24.657Z,99732.20
2024-05-09T05:30:52.931Z,99733.95
2024-05-09T05:33:22.980Z,99735.17
2024-05-09T05:35:51.813Z,99737.40
2024-05-09T05:38:23.771Z,99734.67
2024-05-09T05:40:55.018Z,99738.84
2024-05-09T05:43:23.438Z,99739.15
2024-05-09T05:45:51.587Z,99740.33
2024-05-09T05:48:20.175Z,99740.72
2024-05-09T05:50:48.498Z,99744.75
2024-05-09T05:53:16.750Z,99744.10
2024-05-09T05:55:45.404Z,99744.64
2024-05-09T05:58:15.197Z,99748.70
2024-05-09T06:00:43.494Z,99752.41
2024-05-09T06:03:13.787Z,99755.84
2024-05-09T06:05:48.711Z,99752.20
2024-05-09T06:08:17.440Z,99751.98
2024-05-09T06:10:46.237Z,99751.73
2024-05-09T06:13:15.829Z,99754.14
2024-05-09T06:15:44.617Z,99757.79
2024-05-09T06:18:14.285Z,99762.91
2024-05-09T06:20:44.041Z,99770.72
2024-05-09T06:23:14.373Z,99768.58
2024-05-09T06:25:44.231Z,99772.40
2024-05-09T06:28:12.606Z,99771.25
2024-05-09T06:30:42.990Z,99771.30
2024-05-09T06:33:14.372Z,99775.77
2024-05-09T06:35:46.265Z,99773.97
2024-05-09T06:38:14.995Z,99776.16
2024-05-09T06:40:44.330Z,99777.13
2024-05-09T06:43:18.772Z,99777.18
2024-05-09T06:45:49.639Z,99778.29
2024-05-09T06:48:19.762Z,99781.55
2024-05-09T06:50:48.968Z,99780.42
2024-05-09T06:53:20.585Z,99779.27
2024-05-09T06:55:49.281Z,99771.61
2024-05-09T06:58:18.013Z,99773.56
2024-05-09T07:00:46.292Z,99775.08
2024-05-09T07:03:18.192Z,99780.13
2024-05-09T07:05:49.116Z,99778.79
2024-05-09T07:08:18.709Z,99775.11
2024-05-09T07:10:47.487Z,99771.48
2024-05-09T07:13:16.234Z,99769.10
2024-05-09T07:15:44.761Z,99775.04
2024-05-09T07:18:17.655Z,99775.54
2024-05-09T07:20:50.838Z,99771.36
2024-05-09T07:23:19.630Z,99772.23
2024-05-09T07:25:48.717Z,99768.88
2024-05-09T07:28:19.421Z,99764.05
2024-05-09T07:30:48.208Z,99765.46
2024-05-09T07:33:22.390Z,99768.59
2024-05-09T07:35:52.812Z,99770.56
2024-05-09T07:38:21.822Z,99767.64
2024-05-09T07:40:50.269Z,99769.86
2024-05-09T07:43:18.776Z,99777.31
2024-05-09T07:45:52.710Z,99777.02
2024-05-09T07:52:39.041Z,99770.36
2024-05-09T07:53:49.989Z,99773.11
2024-05-09T07:56:23.080Z,99770.02
2024-05-09T07:58:56.185Z,99764.19
2024-05-09T08:01:26.659Z,99760.16
2024-05-09T08:03:55.827Z,99762.10
2024-05-09T08:06:25.658Z,99757.79
2024-05-09T08:08:54.462Z,99758.01
2024-05-09T08:11:24.050Z,99755.65
2024-05-09T08:13:52.735Z,99752.02
2024-05-09T08:16:21.182Z,99748.48
2024-05-09T08:18:50.274Z,99743.20
2024-05-09T08:21:19.533Z,99745.51
2024-05-09T08:23:47.676Z,99742.48
2024-05-09T08:26:15.873Z,99743.60
2024-05-09T08:28:44.358Z,99743.88
2024-05-09T08:31:12.816Z,99746.15
2024-05-09T08:33:48.239Z,99748.39
2024-05-09T08:36:16.914Z,99740.73
2024-05-09T08:38:45.104Z,99742.13
2024-05-09T08:41:22.049Z,99747.85
2024-05-09T08:43:52.735Z,99752.33
2024-05-09T08:46:27.313Z,99750.81
2024-05-09T08:48:57.595Z,99749.34
2024-05-09T08:51:26.397Z,99743.19
2024-05-09T08:53:57.112Z,99738.92
2024-05-09T08:56:28.467Z,99735.27
2024-05-09T08:59:01.214Z,99738.73
2024-05-09T09:01:32.054Z,99745.39
2024-05-09T09:04:04.468Z,99751.54
2024-05-09T09:06:34.792Z,99751.50
2024-05-09T09:09:03.991Z,99746.02
2024-05-09T09:11:32.299Z,99751.31
2024-05-09T09:14:00.772Z,99757.29
2024-05-09T09:16:33.851Z,99749.29
2024-05-09T09:19:20.412Z,99752.23
2024-05-09T09:21:53.320Z,99753.26
2024-05-09T09:24:22.228Z,99747.97
2024-05-09T09:26:51.258Z,99745.41
2024-05-09T09:29:20.913Z,99747.14
2024-05-09T09:31:58.924Z,99744.29
2024-05-09T09:34:28.638Z,99745.49
2024-05-09T09:36:58.862Z,99745.29
2024-05-09T09:39:28.525Z,99740.27
2024-05-09T09:42:00.029Z,99738.60
2024-05-09T09:44:29.227Z,99736.52
2024-05-09T09:47:00.697Z,99735.75
2024-05-09T09:49:39.505Z,99738.56
2024-05-09T09:52:11.020Z,99737.70
2024-05-09T09:54:43.263Z,99740.88
2024-05-09T09:57:11.978Z,99740.74
2024-05-09T09:59:46.734Z,99737.11
2024-05-09T10:02:15.155Z,99734.38
2024-05-09T10:04:44.194Z,99725.91
2024-05-09T10:07:14.740Z,99728.95
2024-05-09T10:09:43.130Z,99731.14
2024-05-09T10:12:15.321Z,99733.25
2024-05-09T10:14:48.681Z,99736.59
2024-05-09T10:17:17.902Z,99733.55
2024-05-09T10:19:47.304Z,99735.70
2024-05-09T10:22:27.912Z,99730.73
2024-05-09T10:25:05.356Z,99728.98
2024-05-09T10:27:34.164Z,99725.68
2024-05-09T10:30:07.003Z,99722.27
2024-05-09T10:32:41.160Z,99720.86
2024-05-09T10:35:13.041Z,99715.96
2024-05-09T10:37:41.887Z,99713.89
2024-05-09T10:40:23.091Z,99712.57
2024-05-09T10:42:59.565Z,99711.70
2024-05-09T10:45:28.857Z,99707.92
2024-05-09T10:47:57.590Z,99703.80
2024-05-09T10:50:31.817Z,99699.59
2024-05-09T10:53:02.718Z,99697.96
2024-05-09T10:55:31.052Z,99698.38
2024-05-09T10:57:59.357Z,99700.20
2024-05-09T11:00:36.010Z,99702.70
2024-05-09T11:03:05.805Z,99699.89
2024-05-09T11:05:34.896Z,99700.15
2024-05-09T11:08:03.637Z,99697.65
2024-05-09T11:10:34.224Z,99693.02
2024-05-09T11:13:03.309Z,99695.79
2024-05-09T11:15:42.464Z,99693.17
2024-05-09T11:18:25.479Z,99690.78
2024-05-09T11:20:56.601Z,99689.10
2024-05-09T11:23:27.571Z,99684.04
2024-05-09T11:25:57.832Z,99675.41
2024-05-09T11:28:28.817Z,99674.27
2024-05-09T11:31:08.743Z,99680.11
2024-05-09T11:33:45.686Z,99682.85
2024-05-09T11:36:14.802Z,99675.36
2024-05-09T11:38:43.634Z,99669.44
2024-05-09T11:41:18.870Z,99664.09
2024-05-09T11:43:47.460Z,99665.14
2024-05-09T11:46:15.863Z,99673.55
2024-05-09T11:48:44.775Z,99665.96
2024-05-09T11:51:13.145Z,99664.42
2024-05-09T11:53:41.340Z,99658.35
2024-05-09T11:56:11.945Z,99650.27
2024-05-09T11:58:41.674Z,99650.14
2024-05-09T12:01:10.249Z,99645.05
2024-05-09T12:03:38.702Z,99642.41
2024-05-09T12:06:07.609Z,99643.59
2024-05-09T12:08:35.915Z,99640.84
2024-05-09T12:11:05.018Z,99644.92
2024-05-09T12:13:33.980Z,99646.15
2024-05-09T12:16:02.404Z,99640.34
2024-05-09T12:18:31.694Z,99639.95
2024-05-09T12:21:03.350Z,99637.78
2024-05-09T12:23:31.577Z,99642.10
2024-05-09T12:25:59.881Z,99638.27
2024-05-09T12:28:28.218Z,99627.59
2024-05-09T12:30:56.479Z,99627.90
2024-05-09T12:33:25.410Z,99624.73
2024-05-09T12:35:56.157Z,99623.73
2024-05-09T12:38:24.479Z,99619.44
2024-05-09T12:40:53.101Z,99613.90
2024-05-09T12:43:21.806Z,99614.96
2024-05-09T12:45:50.269Z,99614.83
2024-05-09T12:48:19.337Z,99612.33
2024-05-09T12:50:47.999Z,99618.32
2024-05-09T12:53:16.687Z,99614.34
2024-05-09T12:55:53.410Z,99613.67
2024-05-09T12:58:25.367Z,99610.48
2024-05-09T13:00:54.348Z,99611.05
2024-05-09T13:03:24.048Z,99608.86
2024-05-09T13:05:54.089Z,99598.54
2024-05-09T13:08:22.479Z,99596.40
2024-05-09T13:10:51.287Z,99589.77
2024-05-09T13:13:19.809Z,99589.63
2024-05-09T13:15:51.527Z,99586.06
2024-05-09T13:18:20.350Z,99587.23
2024-05-09T13:20:48.630Z,99577.87
2024-05-09T13:23:17.185Z,99573.30
2024-05-09T13:25:48.810Z,99565.09
2024-05-09T13:28:17.380Z,99563.02
2024-05-09T13:30:45.909Z,99567.15
2024-05-09T13:33:14.757Z,99571.61
2024-05-09T13:35:47.348Z,99559.54
2024-05-09T13:38:20.628Z,99558.20
2024-05-09T13:40:50.143Z,99558.38
2024-05-09T13:43:20.862Z,99557.83
2024-05-09T13:45:49.672Z,99556.12
2024-05-09T13:48:18.301Z,99552.96
2024-05-09T13:50:46.982Z,99542.13
2024-05-09T13:53:15.325Z,99540.93
2024-05-09T13:55:43.657Z,99538.97
2024-05-09T13:58:12.003Z,99540.55
2024-05-09T14:00:46.427Z,99532.13
2024-05-09T14:03:20.284Z,99527.06
2024-05-09T14:05:52.116Z,99527.17
2024-05-09T14:08:22.644Z,99524.11
2024-05-09T14:10:52.280Z,99528.28
2024-05-09T14:13:33.028Z,99523.88
2024-05-09T14:16:01.733Z,99518.84
2024-05-09T14:18:30.257Z,99515.48
2024-05-09T14:21:03.839Z,99513.75
2024-05-09T14:23:34.337Z,99509.04
2024-05-09T14:26:04.926Z,99508.45
2024-05-09T14:28:33.237Z,99508.08
2024-05-09T14:31:01.585Z,99503.73
2024-05-09T14:33:30.889Z,99503.80
2024-05-09T14:35:59.548Z,99503.58
2024-05-09T14:38:27.934Z,99499.92
2024-05-09T14:40:56.673Z,99496.94
2024-05-09T14:43:25.707Z,99498.20
2024-05-09T14:45:57.033Z,99496.20
2024-05-09T14:48:26.020Z,99494.13
2024-05-09T14:50:54.709Z,99490.52
2024-05-09T14:53:24.249Z,99486.35
2024-05-09T14:55:53.221Z,99477.70
2024-05-09T14:58:21.902Z,99470.29
2024-05-09T15:00:51.518Z,99472.22
2024-05-09T15:03:21.686Z,99468.52
2024-05-09T15:05:51.980Z,99462.08
2024-05-09T15:08:23.264Z,99459.09
2024-05-09T15:10:51.901Z,99458.63
2024-05-09T15:13:25.402Z,99457.77
2024-05-09T15:15:54.852Z,99458.73
2024-05-09T15:18:23.451Z,99454.27
2024-05-09T15:20:52.595Z,99451.84
2024-05-09T15:23:20.937Z,99450.04
2024-05-09T15:25:49.471Z,99446.56
2024-05-09T15:28:18.610Z,99446.60
2024-05-09T15:30:48.599Z,99450.07
2024-05-09T15:33:17.752Z,99449.48
2024-05-09T15:35:47.085Z,99445.67
2024-05-09T15:38:16.446Z,99442.49
2024-05-09T15:40:44.824Z,99439.00
2024-05-09T15:43:14.347Z,99436.16
2024-05-09T15:45:42.802Z,99431.81
2024-05-09T15:48:11.625Z,99427.45
2024-05-09T15:50:42.845Z,99427.16
2024-05-09T15:53:14.829Z,99425.23
2024-05-09T15:55:43.708Z,99425.77
2024-05-09T15:58:13.032Z,99421.82
2024-05-09T16:00:44.810Z,99422.96
2024-05-09T16:03:15.559Z,99421.55
2024-05-09T16:05:46.821Z,99422.36
2024-05-09T16:08:16.630Z,99420.29
2024-05-09T16:10:47.265Z,99418.17
2024-05-09T16:13:17.451Z,99416.46
2024-05-09T16:15:46.805Z,99414.15
2024-05-09T16:18:15.425Z,99413.05
2024-05-09T16:20:45.446Z,99409.70
2024-05-09T16:23:15.692Z,99408.86
2024-05-09T16:25:46.227Z,99408.98
2024-05-09T16:28:15.181Z,99406.64
2024-05-09T16:30:43.809Z,99402.52
2024-05-09T16:33:12.429Z,99408.58
2024-05-09T16:35:41.132Z,99410.41
2024-05-09T16:38:09.906Z,99408.45
2024-05-09T16:40:40.697Z,99407.83
2024-05-09T16:43:13.190Z,99407.84
2024-05-09T16:45:46.315Z,99407.48
2024-05-09T16:48:15.135Z,99407.86
2024-05-09T16:50:43.599Z,99403.17
2024-05-09T16:53:13.703Z,99403.92
2024-05-09T16:55:42.102Z,99404.16
2024-05-09T16:58:12.628Z,99404.58
2024-05-09T17:00:43.460Z,99402.80
2024-05-09T17:03:20.540Z,99405.77
2024-05-09T17:06:01.772Z,99406.41
2024-05-09T17:08:49.912Z,99403.60
2024-05-09T17:11:30.055Z,99403.77
2024-05-09T17:14:16.381Z,99402.27
2024-05-09T17:16:56.140Z,99403.67
2024-05-09T17:19:41.560Z,99406.67
2024-05-09T17:22:19.830Z,99403.52
2024-05-09T17:25:00.211Z,99403.17
2024-05-09T17:27:40.675Z,99401.88
2024-05-09T17:30:32.370Z,99404.64
2024-05-09T17:33:18.811Z,99407.89
2024-05-09T17:36:05.860Z,99405.16
2024-05-09T17:38:50.476Z,99399.23
2024-05-09T17:41:29.015Z,99399.42
2024-05-09T17:44:06.258Z,99400.48
2024-05-09T17:46:36.925Z,99400.89
2024-05-09T17:49:05.605Z,99401.99
2024-05-09T17:51:35.720Z,99400.84
2024-05-09T17:54:04.274Z,99399.48
2024-05-09T17:56:32.630Z,99401.94
2024-05-09T17:59:00.847Z,99393.58
2024-05-09T18:01:29.927Z,99394.84
2024-05-09T18:03:59.860Z,99394.70
2024-05-09T18:06:28.715Z,99399.87
2024-05-09T18:08:57.378Z,99403.79
2024-05-09T18:11:26.082Z,99406.64
2024-05-09T18:13:54.405Z,99404.59
2024-05-09T18:16:22.723Z,99405.14
2024-05-09T18:18:51.583Z,99403.79
2024-05-09T18:21:19.968Z,99401.20
2024-05-09T18:23:48.395Z,99403.51
2024-05-09T18:26:19.754Z,99404.04
2024-05-09T18:28:48.581Z,99408.79
2024-05-09T18:31:17.331Z,99410.22
2024-05-09T18:33:45.908Z,99412.66
2024-05-09T18:36:14.396Z,99414.08
2024-05-09T18:38:43.205Z,99418.33
2024-05-09T18:41:11.495Z,99416.60
2024-05-09T18:43:45.020Z,99420.82
2024-05-09T18:46:17.095Z,99421.54
2024-05-09T18:48:45.927Z,99423.49
2024-05-09T18:51:14.776Z,99424.04
2024-05-09T18:53:45.094Z,99424.59
2024-05-09T18:56:15.823Z,99422.32
2024-05-09T18:58:45.001Z,99419.69
2024-05-09T19:01:13.451Z,99425.30
2024-05-09T19:03:42.213Z,99432.64
2024-05-09T19:06:11.037Z,99432.81
2024-05-09T19:08:39.437Z,99433.17
2024-05-09T19:11:11.232Z,99432.12
2024-05-09T19:13:39.574Z,99435.44
2024-05-09T19:16:08.520Z,99437.20
2024-05-09T19:18:37.379Z,99438.93
2024-05-09T19:21:06.066Z,99441.90
2024-05-09T19:23:38.238Z,99445.40
2024-05-09T19:26:09.972Z,99446.79
2024-05-09T19:28:38.248Z,99449.41
2024-05-09T19:31:06.837Z,99451.16
2024-05-09T19:33:36.996Z,99451.49
2024-05-09T19:36:06.604Z,99454.80
2024-05-09T19:38:35.411Z,99456.02
2024-05-09T19:41:06.308Z,99457.58
2024-05-09T19:43:35.977Z,99457.21
2024-05-09T19:46:05.068Z,99462.61
2024-05-09T19:48:33.791Z,99462.95
2024-05-09T19:51:05.469Z,99463.63
2024-05-09T19:53:33.832Z,99466.23
2024-05-09T19:56:02.207Z,99465.67
2024-05-09T19:58:30.532Z,99464.09
2024-05-09T20:00:59.472Z,99469.50
2024-05-09T20:03:27.740Z,99471.77
2024-05-09T20:05:58.463Z,99472.86
2024-05-09T20:08:26.924Z,99474.09
2024-05-09T20:10:56.241Z,99473.23
2024-05-09T20:13:24.888Z,99475.67
2024-05-09T20:15:53.539Z,99473.05
2024-05-09T20:18:22.368Z,99475.29
2024-05-09T20:20:53.395Z,99473.88
2024-05-09T20:23:22.415Z,99474.02
2024-05-09T20:25:50.997Z,99473.68
2024-05-09T20:28:20.331Z,99470.20
2024-05-09T20:30:48.817Z,99470.02
2024-05-09T20:33:17.893Z,99471.21
2024-05-09T20:35:46.480Z,99471.35
2024-05-09T20:38:14.696Z,99474.14
2024-05-09T20:40:43.946Z,99470.64
2024-05-09T20:43:12.320Z,99475.15
2024-05-09T20:45:41.052Z,99471.65
2024-05-09T20:48:10.143Z,99471.80
2024-05-09T20:50:41.432Z,99472.98
2024-05-09T20:53:13.851Z,99468.58
2024-05-09T20:55:44.821Z,99467.51
2024-05-09T20:58:14.366Z,99466.43
2024-05-09T21:00:45.488Z,99471.81
2024-05-09T21:03:17.013Z,99467.41
2024-05-09T21:05:47.961Z,99468.11
2024-05-09T21:08:17.150Z,99468.64
2024-05-09T21:10:45.689Z,99471.95
2024-05-09T21:13:14.664Z,99473.00
2024-05-09T21:15:43.583Z,99474.21
2024-05-09T21:18:12.034Z,99475.77
2024-05-09T21:20:40.377Z,99479.91
2024-05-09T21:23:08.921Z,99481.08
2024-05-09T21:25:37.295Z,99480.52
2024-05-09T21:28:05.833Z,99480.64
2024-05-09T21:30:41.353Z,99477.77
2024-05-09T21:33:13.525Z,99480.27
2024-05-09T21:35:44.332Z,99476.39
2024-05-09T21:38:14.736Z,99472.48
2024-05-09T21:40:43.964Z,99475.02
2024-05-09T21:43:12.799Z,99474.06
2024-05-09T21:45:41.334Z,99472.57
2024-05-09T21:48:13.172Z,99470.75
2024-05-09T21:50:42.659Z,99471.88
2024-05-09T21:53:12.687Z,99469.73
2024-05-09T21:55:42.674Z,99470.91
2024-05-09T21:58:15.312Z,99472.23
2024-05-09T22:00:45.765Z,99470.09
2024-05-09T22:03:15.609Z,99470.05
2024-05-09T22:05:45.418Z,99470.88
2024-05-09T22:08:13.955Z,99473.91
2024-05-09T22:10:42.462Z,99474.55
2024-05-09T22:13:11.142Z,99470.31
2024-05-09T22:15:40.473Z,99463.52
2024-05-09T22:18:11.573Z,99460.94
2024-05-09T22:20:49.638Z,99463.70
2024-05-09T22:23:17.936Z,99467.33
2024-05-09T22:25:46.305Z,99465.72
2024-05-09T22:28:15.884Z,99465.34
2024-05-09T22:30:47.123Z,99463.54
2024-05-09T22:33:16.568Z,99457.91
2024-05-09T22:35:45.411Z,99458.77
2024-05-09T22:38:14.092Z,99459.42
2024-05-09T22:40:48.134Z,99456.42
2024-05-09T22:43:23.993Z,99453.42
2024-05-09T22:45:56.576Z,99454.75
2024-05-09T22:48:25.808Z,99452.98
2024-05-09T22:50:54.944Z,99455.77
2024-05-09T22:53:26.726Z,99455.90
2024-05-09T22:55:55.427Z,99456.70
2024-05-09T22:58:24.008Z,99456.80
2024-05-09T23:00:52.852Z,99454.25
2024-05-09T23:03:22.749Z,99449.46
2024-05-09T23:05:53.978Z,99446.95
2024-05-09T23:08:23.602Z,99443.73
2024-05-09T23:10:52.140Z,99442.32
2024-05-09T23:13:20.623Z,99437.64
2024-05-09T23:15:49.382Z,99437.34
2024-05-09T23:18:17.682Z,99437.35
2024-05-09T23:20:45.991Z,99436.65
2024-05-09T23:23:14.974Z,99434.56
2024-05-09T23:25:44.004Z,99434.39
2024-05-09T23:28:12.862Z,99430.67
2024-05-09T23:30:42.251Z,99432.71
2024-05-09T23:33:13.301Z,99430.77
2024-05-09T23:35:46.257Z,99427.94
2024-05-09T23:38:14.761Z,99424.96
2024-05-09T23:40:43.819Z,99427.67
2024-05-09T23:43:14.555Z,99423.09
2024-05-09T23:45:43.707Z,99419.91
2024-05-09T23:48:12.303Z,99418.61
2024-05-09T23:50:41.495Z,99418.58
2024-05-09T23:53:10.896Z,99415.45
2024-05-09T23:55:40.039Z,99409.52
2024-05-09T23:58:11.386Z,99406.02
